createdAt,value
2018-01-17T00:01:07.577Z,3.70
2018-01-17T00:03:35.919Z,3.60
2018-01-17T00:06:04.290Z,3.60
2018-01-17T00:08:32.633Z,3.60
2018-01-17T00:11:00.993Z,3.60
2018-01-17T00:13:29.297Z,3.60
2018-01-17T00:15:57.644Z,3.60
2018-01-17T00:18:25.960Z,3.60
2018-01-17T00:20:54.267Z,3.60
2018-01-17T00:23:23.354Z,3.60
2018-01-17T00:25:51.655Z,3.60
2018-01-17T00:28:19.980Z,3.60
2018-01-17T00:30:55.111Z,3.60
2018-01-17T00:33:37.804Z,3.60
2018-01-17T00:36:06.091Z,3.70
2018-01-17T00:38:34.427Z,3.70
2018-01-17T00:41:03.499Z,3.70
2018-01-17T00:43:31.824Z,3.60
2018-01-17T00:46:00.158Z,3.70
2018-01-17T00:48:28.496Z,3.60
2018-01-17T00:50:56.836Z,3.60
2018-01-17T00:53:25.148Z,3.60
2018-01-17T00:55:53.451Z,3.40
2018-01-17T00:58:21.744Z,3.40
2018-01-17T01:00:50.064Z,3.40
2018-01-17T01:03:19.140Z,3.40
2018-01-17T01:05:47.463Z,3.40
2018-01-17T01:08:15.767Z,3.40
2018-01-17T01:10:44.121Z,3.40
2018-01-17T01:13:12.431Z,3.30
2018-01-17T01:15:40.763Z,3.30
2018-01-17T01:18:21.668Z,3.30
2018-01-17T01:20:50.027Z,3.30
2018-01-17T01:23:18.337Z,3.30
2018-01-17T01:25:46.663Z,3.20
2018-01-17T01:28:15.015Z,3.20
2018-01-17T01:30:43.395Z,3.20
2018-01-17T01:33:11.793Z,3.20
2018-01-17T01:35:40.200Z,3.20
2018-01-17T01:38:08.579Z,3.10
2018-01-17T01:40:36.922Z,3.10
2018-01-17T01:43:05.315Z,3.10
2018-01-17T01:45:34.460Z,3.00
2018-01-17T01:48:02.842Z,3.00
2018-01-17T01:50:31.287Z,3.00
2018-01-17T01:52:59.661Z,3.00
2018-01-17T01:55:28.063Z,3.00
2018-01-17T01:57:56.455Z,2.90
2018-01-17T02:00:31.986Z,2.90
2018-01-17T02:03:00.392Z,2.90
2018-01-17T02:05:28.811Z,2.90
2018-01-17T02:07:57.189Z,2.90
2018-01-17T02:10:25.570Z,2.90
2018-01-17T02:12:53.989Z,2.80
2018-01-17T02:15:22.411Z,2.90
2018-01-17T02:17:51.607Z,2.80
2018-01-17T02:20:19.949Z,2.90
2018-01-17T02:22:48.319Z,2.80
2018-01-17T02:25:16.668Z,2.80
2018-01-17T02:27:45.807Z,2.80
2018-01-17T02:30:14.132Z,2.80
2018-01-17T02:32:42.512Z,2.80
2018-01-17T02:35:10.870Z,2.80
2018-01-17T02:37:39.244Z,2.80
2018-01-17T02:40:19.424Z,2.80
2018-01-17T02:42:47.795Z,2.70
2018-01-17T02:45:16.152Z,2.70
2018-01-17T02:47:44.498Z,2.70
2018-01-17T02:50:12.877Z,2.70
2018-01-17T02:52:41.208Z,2.70
2018-01-17T02:55:09.557Z,2.70
2018-01-17T02:57:37.946Z,2.60
2018-01-17T03:00:06.311Z,2.60
2018-01-17T03:02:34.746Z,2.60
2018-01-17T03:05:03.870Z,2.60
2018-01-17T03:07:32.224Z,2.60
2018-01-17T03:10:01.332Z,2.50
2018-01-17T03:12:29.726Z,2.50
2018-01-17T03:14:58.068Z,2.50
2018-01-17T03:17:26.458Z,2.50
2018-01-17T03:19:55.580Z,2.50
2018-01-17T03:22:23.900Z,2.50
2018-01-17T03:24:52.258Z,2.50
2018-01-17T03:27:20.599Z,2.50
2018-01-17T03:29:49.724Z,2.50
2018-01-17T03:32:18.831Z,2.50
2018-01-17T03:34:47.180Z,2.40
2018-01-17T03:37:15.523Z,2.50
2018-01-17T03:39:43.868Z,2.60
2018-01-17T03:42:12.212Z,2.50
2018-01-17T03:44:41.323Z,2.50
2018-01-17T03:47:09.667Z,2.50
2018-01-17T03:49:38.007Z,2.50
2018-01-17T03:52:06.350Z,2.50
2018-01-17T03:54:35.568Z,2.60
2018-01-17T03:57:03.898Z,2.60
2018-01-17T03:59:32.276Z,2.60
2018-01-17T04:02:00.631Z,2.60
2018-01-17T04:04:28.976Z,2.60
2018-01-17T04:09:54.571Z,2.70
2018-01-17T04:12:26.375Z,2.70
2018-01-17T04:14:55.621Z,2.80
2018-01-17T04:17:23.952Z,2.80
2018-01-17T04:19:52.298Z,2.90
2018-01-17T04:22:21.402Z,2.90
2018-01-17T04:24:50.503Z,2.90
2018-01-17T04:27:19.614Z,2.90
2018-01-17T04:29:48.702Z,2.90
2018-01-17T04:32:17.817Z,2.90
2018-01-17T04:34:46.149Z,2.90
2018-01-17T04:37:14.498Z,2.90
2018-01-17T04:39:42.805Z,2.90
2018-01-17T04:42:11.167Z,3.00
2018-01-17T04:44:39.498Z,3.00
2018-01-17T04:47:08.557Z,3.00
2018-01-17T04:49:36.914Z,3.00
2018-01-17T04:52:05.260Z,3.00
2018-01-17T04:54:33.595Z,3.00
2018-01-17T04:57:01.931Z,3.00
2018-01-17T04:59:30.269Z,3.00
2018-01-17T05:02:12.790Z,2.90
2018-01-17T05:04:41.921Z,2.90
2018-01-17T05:07:10.262Z,2.90
2018-01-17T05:09:39.383Z,3.00
2018-01-17T05:12:07.692Z,2.90
2018-01-17T05:14:36.044Z,2.90
2018-01-17T05:17:04.376Z,2.90
2018-01-17T05:19:32.722Z,2.90
2018-01-17T05:22:01.049Z,2.90
2018-01-17T05:24:30.176Z,2.80
2018-01-17T05:26:58.504Z,2.80
2018-01-17T05:29:27.614Z,2.80
2018-01-17T05:31:55.955Z,2.80
2018-01-17T05:34:24.274Z,2.80
2018-01-17T05:36:52.656Z,2.80
2018-01-17T05:39:20.971Z,2.80
2018-01-17T05:41:49.321Z,2.80
2018-01-17T05:44:18.448Z,2.80
2018-01-17T05:46:46.790Z,2.80
2018-01-17T05:49:15.121Z,2.80
2018-01-17T05:51:43.460Z,2.80
2018-01-17T05:54:12.561Z,2.80
2018-01-17T05:56:41.683Z,2.70
2018-01-17T05:59:10.013Z,2.70
2018-01-17T06:01:38.339Z,2.70
2018-01-17T06:04:06.675Z,2.70
2018-01-17T06:06:34.992Z,2.70
2018-01-17T06:09:03.334Z,2.60
2018-01-17T06:11:31.679Z,2.60
2018-01-17T06:14:00.035Z,2.60
2018-01-17T06:16:29.124Z,2.60
2018-01-17T06:18:57.483Z,2.60
2018-01-17T06:21:26.558Z,2.60
2018-01-17T06:23:54.911Z,2.60
2018-01-17T06:26:23.241Z,2.60
2018-01-17T06:28:51.598Z,2.60
2018-01-17T06:31:28.570Z,2.60
2018-01-17T06:33:56.905Z,2.60
2018-01-17T06:36:25.235Z,2.70
2018-01-17T06:38:54.349Z,2.70
2018-01-17T06:41:22.687Z,2.60
2018-01-17T06:43:51.046Z,2.70
2018-01-17T06:46:19.374Z,2.70
2018-01-17T06:48:48.466Z,2.70
2018-01-17T06:51:16.830Z,2.70
2018-01-17T06:53:45.156Z,2.70
2018-01-17T06:56:13.519Z,2.70
2018-01-17T06:58:43.560Z,2.70
2018-01-17T07:01:11.894Z,2.70
2018-01-17T07:03:40.239Z,2.60
2018-01-17T07:06:08.602Z,2.40
2018-01-17T07:08:36.947Z,2.20
2018-01-17T07:11:06.084Z,1.90
2018-01-17T07:13:34.444Z,1.90
2018-01-17T07:16:02.915Z,1.90
2018-01-17T07:18:32.044Z,1.90
2018-01-17T07:21:00.565Z,1.70
2018-01-17T07:23:29.148Z,1.50
2018-01-17T07:25:57.509Z,1.40
2018-01-17T07:28:25.863Z,1.40
2018-01-17T07:30:54.244Z,1.30
2018-01-17T07:33:22.622Z,1.20
2018-01-17T07:35:51.073Z,1.20
2018-01-17T07:38:19.740Z,1.20
2018-01-17T07:40:48.293Z,1.30
2018-01-17T07:45:59.414Z,1.20
2018-01-17T07:48:30.920Z,1.30
2018-01-17T07:51:02.940Z,1.20
2018-01-17T07:53:33.102Z,1.10
2018-01-17T07:56:10.573Z,1.10
2018-01-17T07:58:44.802Z,1.20
2018-01-17T08:01:15.440Z,1.10
2018-01-17T08:03:50.774Z,1.20
2018-01-17T08:06:23.901Z,1.10
2018-01-17T08:08:56.201Z,1.20
2018-01-17T08:11:47.340Z,1.20
2018-01-17T08:14:33.848Z,1.30
2018-01-17T08:17:15.474Z,1.30
2018-01-17T08:22:31.562Z,1.20
2018-01-17T08:30:41.379Z,1.20
2018-01-17T08:35:55.202Z,1.30
2018-01-17T08:38:31.285Z,1.30
2018-01-17T08:41:30.229Z,1.30
2018-01-17T08:44:06.670Z,1.30
2018-01-17T08:46:40.373Z,1.30
2018-01-17T08:49:13.781Z,1.30
2018-01-17T08:51:50.799Z,1.30
2018-01-17T08:54:24.046Z,1.20
2018-01-17T08:56:56.042Z,1.20
2018-01-17T08:59:35.649Z,1.20
2018-01-17T09:59:19.460Z,1.50
2018-01-17T10:01:48.899Z,1.50
2018-01-17T10:04:17.555Z,1.50
2018-01-17T10:06:46.946Z,1.80
2018-01-17T10:09:15.482Z,1.80
2018-01-17T10:11:44.965Z,2.00
2018-01-17T10:14:13.533Z,2.20
2018-01-17T10:16:42.062Z,2.40
2018-01-17T10:19:10.559Z,2.40
2018-01-17T10:21:39.006Z,2.20
2018-01-17T10:24:10.359Z,2.10
2018-01-17T10:26:38.771Z,2.10
2018-01-17T10:29:07.102Z,2.20
2018-01-17T10:31:35.487Z,2.50
2018-01-17T10:34:04.854Z,2.60
2018-01-17T10:36:33.994Z,2.90
2018-01-17T10:39:02.347Z,2.90
2018-01-17T10:41:30.723Z,3.00
2018-01-17T10:43:59.055Z,2.90
2018-01-17T10:46:27.454Z,2.80
2018-01-17T10:48:56.633Z,2.90
2018-01-17T10:51:25.004Z,2.90
2018-01-17T10:53:53.321Z,2.80
2018-01-17T10:56:22.471Z,2.70
2018-01-17T10:58:50.813Z,2.70
2018-01-17T11:01:19.144Z,2.80
2018-01-17T11:03:47.513Z,2.90
2018-01-17T11:06:15.844Z,3.10
2018-01-17T11:08:44.966Z,3.10
2018-01-17T11:11:13.321Z,3.10
2018-01-17T11:13:41.684Z,3.20
2018-01-17T11:16:10.091Z,3.00
2018-01-17T11:18:38.486Z,3.00
2018-01-17T11:21:06.836Z,3.10
2018-01-17T11:23:35.944Z,3.20
2018-01-17T11:26:04.295Z,3.30
2018-01-17T11:28:33.459Z,3.30
2018-01-17T11:31:01.844Z,3.30
2018-01-17T11:33:30.184Z,3.20
2018-01-17T11:35:58.539Z,3.30
2018-01-17T11:38:27.657Z,3.30
2018-01-17T11:40:56.010Z,3.20
2018-01-17T11:43:25.097Z,3.20
2018-01-17T11:45:53.446Z,3.20
2018-01-17T11:48:21.774Z,3.20
2018-01-17T11:50:50.157Z,3.20
2018-01-17T11:53:19.252Z,3.20
2018-01-17T11:55:48.357Z,3.20
2018-01-17T11:58:16.696Z,3.20
2018-01-17T12:00:45.032Z,3.20
2018-01-17T12:03:13.352Z,3.20
2018-01-17T12:05:41.740Z,3.20
2018-01-17T12:08:13.445Z,3.20
2018-01-17T12:10:41.806Z,3.10
2018-01-17T12:13:10.886Z,3.10
2018-01-17T12:15:39.235Z,3.10
2018-01-17T12:18:07.566Z,3.10
2018-01-17T12:20:35.930Z,3.10
2018-01-17T12:23:04.248Z,3.00
2018-01-17T12:25:32.580Z,3.00
2018-01-17T12:28:01.692Z,3.00
2018-01-17T12:30:30.020Z,3.00
2018-01-17T12:32:58.380Z,3.10
2018-01-17T12:35:26.678Z,3.20
2018-01-17T12:37:55.022Z,3.20
2018-01-17T12:40:23.348Z,3.20
2018-01-17T12:42:51.675Z,3.00
2018-01-17T12:45:20.012Z,3.10
2018-01-17T12:47:48.318Z,3.10
2018-01-17T12:50:17.426Z,3.20
2018-01-17T12:52:45.747Z,3.20
2018-01-17T12:55:14.083Z,3.30
2018-01-17T12:57:42.387Z,3.20
2018-01-17T13:00:10.715Z,3.30
2018-01-17T13:02:39.806Z,3.70
2018-01-17T13:05:08.146Z,3.70
2018-01-17T13:07:36.468Z,3.90
2018-01-17T13:10:06.766Z,3.90
2018-01-17T13:12:35.123Z,3.70
2018-01-17T13:15:03.440Z,3.70
2018-01-17T13:17:31.778Z,3.60
2018-01-17T13:20:00.088Z,3.50
2018-01-17T13:22:28.428Z,3.50
2018-01-17T13:24:56.776Z,3.40
2018-01-17T13:27:25.074Z,3.40
2018-01-17T13:29:53.390Z,3.40
2018-01-17T13:32:21.715Z,3.40
2018-01-17T13:34:50.030Z,3.30
2018-01-17T13:37:18.366Z,3.00
2018-01-17T13:39:47.458Z,2.60
2018-01-17T13:42:16.568Z,2.40
2018-01-17T13:44:45.636Z,2.20
2018-01-17T13:47:14.017Z,2.20
2018-01-17T13:49:42.351Z,1.90
2018-01-17T13:52:10.759Z,1.60
2018-01-17T13:54:39.179Z,1.50
2018-01-17T13:57:11.510Z,1.50
2018-01-17T13:59:41.825Z,1.50
2018-01-17T14:02:14.066Z,1.50
2018-01-17T14:04:45.564Z,1.60
2018-01-17T14:07:14.673Z,1.60
2018-01-17T14:09:44.336Z,1.60
2018-01-17T14:12:13.804Z,1.60
2018-01-17T14:14:42.446Z,1.60
2018-01-17T14:17:11.786Z,1.60
2018-01-17T14:19:40.294Z,1.60
2018-01-17T14:22:08.778Z,1.60
2018-01-17T14:24:37.262Z,1.60
2018-01-17T14:27:05.738Z,1.60
2018-01-17T14:29:34.334Z,1.60
2018-01-17T14:32:12.874Z,1.60
2018-01-17T14:34:42.538Z,1.60
2018-01-17T14:37:14.084Z,1.50
2018-01-17T14:39:49.658Z,1.60
2018-01-17T14:42:18.294Z,1.60
2018-01-17T14:44:46.770Z,1.70
2018-01-17T14:47:15.601Z,1.70
2018-01-17T14:49:44.094Z,1.80
2018-01-17T14:52:12.544Z,1.80
2018-01-17T14:54:41.090Z,1.80
2018-01-17T14:57:09.467Z,1.80
2018-01-17T14:59:37.900Z,1.90
2018-01-17T15:02:06.292Z,1.80
2018-01-17T15:04:34.672Z,1.80
2018-01-17T15:07:03.040Z,1.90
2018-01-17T15:09:32.143Z,2.00
2018-01-17T15:12:00.491Z,2.00
2018-01-17T15:14:28.869Z,2.00
2018-01-17T15:16:57.190Z,2.00
2018-01-17T15:19:25.516Z,2.00
2018-01-17T15:21:53.877Z,2.00
2018-01-17T15:24:22.197Z,2.00
2018-01-17T15:26:50.565Z,2.00
2018-01-17T15:29:18.903Z,2.10
2018-01-17T15:31:47.259Z,2.10
2018-01-17T15:34:15.584Z,2.10
2018-01-17T15:36:47.384Z,2.10
2018-01-17T15:39:16.480Z,2.20
2018-01-17T15:41:45.595Z,2.20
2018-01-17T15:44:13.951Z,2.20
2018-01-17T15:46:43.093Z,2.20
2018-01-17T15:49:11.522Z,2.20
2018-01-17T15:51:40.657Z,2.30
2018-01-17T15:54:08.988Z,2.30
2018-01-17T15:56:37.347Z,2.30
2018-01-17T15:59:05.680Z,2.40
2018-01-17T16:01:34.783Z,2.40
2018-01-17T16:04:24.031Z,2.30
2018-01-17T16:06:53.151Z,2.30
2018-01-17T16:09:24.560Z,2.30
2018-01-17T16:11:52.923Z,2.20
2018-01-17T16:14:21.258Z,2.30
2018-01-17T16:16:49.653Z,2.30
2018-01-17T16:19:18.955Z,2.20
2018-01-17T16:21:47.326Z,2.30
2018-01-17T16:24:15.644Z,2.30
2018-01-17T16:26:58.185Z,2.20
2018-01-17T16:29:26.532Z,2.20
2018-01-17T16:32:12.455Z,2.20
2018-01-17T16:51:13.749Z,2.50
2018-01-17T16:53:42.873Z,2.20
2018-01-17T16:56:11.247Z,2.20
2018-01-17T16:58:39.589Z,2.10
2018-01-17T17:01:07.953Z,2.10
2018-01-17T17:03:37.045Z,2.10
2018-01-17T17:06:05.435Z,2.10
2018-01-17T17:08:33.830Z,2.10
2018-01-17T17:11:02.197Z,2.10
2018-01-17T17:13:30.584Z,2.10
2018-01-17T17:15:59.677Z,2.10
2018-01-17T17:18:28.035Z,2.10
2018-01-17T17:20:56.414Z,2.20
2018-01-17T17:23:24.758Z,2.20
2018-01-17T17:25:53.131Z,2.20
2018-01-17T17:28:21.476Z,2.30
2018-01-17T17:30:49.801Z,2.30
2018-01-17T17:33:18.161Z,2.30
2018-01-17T17:35:46.496Z,2.40
2018-01-17T17:38:14.864Z,2.50
2018-01-17T17:40:43.205Z,2.50
2018-01-17T17:43:11.547Z,2.60
2018-01-17T17:45:39.901Z,2.70
2018-01-17T17:48:08.258Z,2.70
2018-01-17T17:50:36.626Z,2.90
2018-01-17T17:53:04.985Z,2.90
2018-01-17T17:55:33.336Z,2.90
2018-01-17T17:58:02.430Z,2.90
2018-01-17T18:00:31.533Z,2.80
2018-01-17T18:03:00.643Z,2.90
2018-01-17T18:05:29.015Z,2.90
2018-01-17T18:07:57.384Z,2.80
2018-01-17T18:10:26.515Z,2.70
2018-01-17T18:12:54.870Z,2.70
2018-01-17T18:15:23.217Z,2.70
2018-01-17T18:17:52.364Z,2.70
2018-01-17T18:20:21.464Z,2.80
2018-01-17T18:22:49.833Z,2.80
2018-01-17T18:25:18.179Z,2.80
2018-01-17T18:27:46.576Z,2.80
2018-01-17T18:30:15.793Z,2.80
2018-01-17T18:32:44.190Z,2.80
2018-01-17T18:35:12.543Z,2.80
2018-01-17T18:37:42.367Z,2.80
2018-01-17T18:40:10.722Z,2.70
2018-01-17T18:42:39.086Z,2.70
2018-01-17T18:45:07.408Z,2.70
2018-01-17T18:47:35.771Z,2.70
2018-01-17T18:50:04.107Z,2.70
2018-01-17T18:52:32.459Z,2.70
2018-01-17T18:55:00.809Z,2.70
2018-01-17T18:57:29.967Z,2.70
2018-01-17T18:59:58.275Z,2.60
2018-01-17T19:02:27.416Z,2.60
2018-01-17T19:04:55.751Z,2.50
2018-01-17T19:07:24.117Z,2.60
2018-01-17T19:09:52.436Z,2.60
2018-01-17T19:12:20.803Z,2.50
2018-01-17T19:14:49.130Z,2.50
2018-01-17T19:17:17.466Z,2.50
2018-01-17T19:19:45.796Z,2.50
2018-01-17T19:22:14.135Z,2.50
2018-01-17T19:24:42.450Z,2.60
2018-01-17T19:27:10.796Z,2.70
2018-01-17T19:29:39.117Z,2.80
2018-01-17T19:32:07.480Z,2.80
2018-01-17T19:34:35.841Z,2.70
2018-01-17T19:37:04.146Z,2.70
2018-01-17T19:39:32.545Z,2.80
2018-01-17T19:42:00.868Z,2.80
2018-01-17T19:44:30.127Z,2.70
2018-01-17T19:46:59.212Z,2.70
2018-01-17T19:49:27.556Z,2.70
2018-01-17T19:51:55.881Z,2.70
2018-01-17T19:54:24.981Z,2.70
2018-01-17T19:56:54.039Z,2.70
2018-01-17T19:59:22.414Z,2.70
2018-01-17T20:01:50.715Z,2.80
2018-01-17T20:04:19.058Z,2.70
2018-01-17T20:06:47.410Z,2.80
2018-01-17T20:09:16.533Z,2.80
2018-01-17T20:11:44.844Z,2.80
2018-01-17T20:14:13.167Z,2.90
2018-01-17T20:16:41.499Z,2.90
2018-01-17T20:19:09.811Z,2.90
2018-01-17T20:21:38.919Z,3.10
2018-01-17T20:24:07.285Z,3.00
2018-01-17T20:26:36.417Z,3.10
2018-01-17T20:29:04.745Z,3.00
2018-01-17T20:31:33.135Z,3.00
2018-01-17T20:34:02.247Z,3.10
2018-01-17T20:36:30.656Z,3.10
2018-01-17T20:38:59.001Z,3.10
2018-01-17T20:41:27.386Z,3.10
2018-01-17T20:43:56.484Z,3.00
2018-01-17T20:46:24.886Z,3.00
2018-01-17T20:48:53.229Z,3.10
2018-01-17T20:51:22.353Z,3.00
2018-01-17T20:53:50.738Z,3.00
2018-01-17T20:56:19.090Z,3.00
2018-01-17T20:58:48.270Z,2.90
2018-01-17T21:01:16.659Z,2.90
2018-01-17T21:03:45.816Z,2.80
2018-01-17T21:06:14.119Z,2.80
2018-01-17T21:08:42.462Z,2.80
2018-01-17T21:11:10.828Z,2.70
2018-01-17T21:13:39.180Z,2.70
2018-01-17T21:16:08.303Z,2.60
2018-01-17T21:18:36.676Z,2.60
2018-01-17T21:21:04.966Z,2.60
2018-01-17T21:23:33.358Z,2.60
2018-01-17T21:26:02.724Z,2.60
2018-01-17T21:28:32.634Z,2.50
2018-01-17T21:31:00.960Z,2.40
2018-01-17T21:33:29.263Z,2.40
2018-01-17T21:35:57.585Z,2.40
2018-01-17T21:38:25.932Z,2.50
2018-01-17T21:40:54.260Z,2.50
2018-01-17T21:43:28.256Z,2.50
2018-01-17T21:45:57.521Z,2.50
2018-01-17T21:48:26.620Z,2.40
2018-01-17T21:50:55.724Z,2.40
2018-01-17T21:53:24.029Z,2.40
2018-01-17T21:55:52.372Z,2.40
2018-01-17T21:58:21.482Z,2.40
2018-01-17T22:00:50.584Z,2.40
2018-01-17T22:03:18.895Z,2.30
2018-01-17T22:05:47.198Z,2.30
2018-01-17T22:08:15.525Z,2.40
2018-01-17T22:10:43.834Z,2.30
2018-01-17T22:13:12.219Z,2.30
2018-01-17T22:15:40.516Z,2.40
2018-01-17T22:18:08.846Z,2.40
2018-01-17T22:20:37.156Z,2.40
2018-01-17T22:23:05.702Z,2.40
2018-01-17T22:25:33.998Z,2.40
2018-01-17T22:28:02.324Z,2.50
2018-01-17T22:30:30.667Z,2.50
2018-01-17T22:32:58.974Z,2.50
2018-01-17T22:35:27.329Z,2.50
2018-01-17T22:37:55.632Z,2.60
2018-01-17T22:40:23.978Z,2.60
2018-01-17T22:42:52.283Z,2.60
2018-01-17T22:45:20.587Z,2.60
2018-01-17T22:47:48.911Z,2.60
2018-01-17T22:50:17.222Z,2.60
2018-01-17T22:52:45.564Z,2.60
2018-01-17T22:55:13.866Z,2.60
2018-01-17T22:57:42.207Z,2.60
2018-01-17T23:00:10.539Z,2.70
2018-01-17T23:02:38.851Z,2.70
2018-01-17T23:05:08.094Z,2.80
2018-01-17T23:07:36.396Z,2.90
2018-01-17T23:10:04.730Z,2.80
2018-01-17T23:12:33.037Z,2.80
2018-01-17T23:15:01.365Z,2.80
2018-01-17T23:17:29.663Z,2.90
2018-01-17T23:19:58.012Z,2.90
2018-01-17T23:22:28.012Z,2.90
2018-01-17T23:24:56.315Z,2.90
2018-01-17T23:27:24.638Z,2.90
2018-01-17T23:29:52.957Z,2.90
2018-01-17T23:32:22.060Z,2.90
2018-01-17T23:34:51.122Z,2.90
2018-01-17T23:37:19.470Z,2.90
2018-01-17T23:39:47.778Z,2.90
2018-01-17T23:42:16.112Z,2.90
2018-01-17T23:44:44.414Z,2.90
2018-01-17T23:47:12.751Z,2.90
2018-01-17T23:49:41.067Z,2.90
2018-01-17T23:52:09.375Z,2.90
2018-01-17T23:54:37.737Z,2.90
2018-01-17T23:57:06.034Z,2.90
2018-01-17T23:59:34.372Z,2.90
